createdAt,value
2023-04-28T00:00:32.485Z,16.65
2023-04-28T00:03:00.696Z,11.95
2023-04-28T00:05:29.055Z,18.95
2023-04-28T00:07:57.130Z,18.50
2023-04-28T00:10:25.125Z,14.55
2023-04-28T00:12:52.970Z,15.45
2023-04-28T00:15:21.005Z,22.40
2023-04-28T00:17:50.529Z,21.65
2023-04-28T00:20:18.772Z,18.77
2023-04-28T00:22:46.693Z,23.42
2023-04-28T00:25:15.045Z,20.85
2023-04-28T00:27:42.981Z,23.92
2023-04-28T00:30:12.627Z,26.92
2023-04-28T00:32:40.616Z,23.80
2023-04-28T00:35:10.892Z,22.75
2023-04-28T00:37:38.890Z,21.10
2023-04-28T00:40:08.200Z,22.38
2023-04-28T00:42:36.209Z,28.90
2023-04-28T00:45:06.600Z,19.20
2023-04-28T00:47:35.537Z,23.67
2023-04-28T00:50:05.822Z,20.63
2023-04-28T00:52:35.392Z,20.02
2023-04-28T00:55:03.634Z,20.10
2023-04-28T00:57:32.227Z,20.58
2023-04-28T01:00:01.616Z,23.27
2023-04-28T01:02:30.746Z,22.45
2023-04-28T01:04:59.278Z,20.83
2023-04-28T01:07:27.453Z,19.77
2023-04-28T01:09:57.309Z,21.42
2023-04-28T01:12:30.862Z,23.13
2023-04-28T01:14:59.492Z,18.42
2023-04-28T01:17:28.457Z,22.05
2023-04-28T01:19:56.970Z,19.73
2023-04-28T01:22:25.157Z,19.70
2023-04-28T01:24:54.435Z,26.13
2023-04-28T01:27:24.674Z,19.35
2023-04-28T01:29:52.648Z,23.00
2023-04-28T01:32:21.202Z,18.05
2023-04-28T01:34:49.007Z,16.60
2023-04-28T01:37:17.026Z,16.80
2023-04-28T01:39:44.912Z,22.85
2023-04-28T01:42:14.358Z,18.23
2023-04-28T01:44:42.207Z,17.30
2023-04-28T01:47:12.104Z,18.30
2023-04-28T01:49:39.989Z,20.55
2023-04-28T01:52:09.097Z,15.48
2023-04-28T01:54:37.765Z,22.50
2023-04-28T01:57:06.134Z,19.17
2023-04-28T01:59:36.015Z,25.42
2023-04-28T02:02:05.382Z,23.60
2023-04-28T02:04:34.266Z,26.55
2023-04-28T02:07:02.204Z,21.90
2023-04-28T02:09:30.104Z,23.55
2023-04-28T02:12:00.129Z,22.85
2023-04-28T02:14:28.032Z,27.27
2023-04-28T02:16:57.561Z,27.42
2023-04-28T02:19:25.479Z,27.83
2023-04-28T02:21:53.483Z,30.17
2023-04-28T02:24:21.391Z,30.25
2023-04-28T02:26:49.405Z,35.03
2023-04-28T02:29:17.366Z,28.33
2023-04-28T02:31:45.498Z,26.70
2023-04-28T02:34:15.754Z,28.60
2023-04-28T02:36:43.880Z,23.10
2023-04-28T02:39:12.080Z,21.35
2023-04-28T02:41:40.022Z,25.63
2023-04-28T02:44:07.881Z,26.15
2023-04-28T02:46:36.013Z,25.00
2023-04-28T02:49:05.486Z,19.75
2023-04-28T02:51:35.018Z,17.98
2023-04-28T02:54:02.962Z,16.17
2023-04-28T02:56:31.076Z,19.17
2023-04-28T02:59:00.155Z,18.60
2023-04-28T03:01:28.105Z,23.05
2023-04-28T03:03:56.281Z,25.52
2023-04-28T03:06:24.377Z,18.38
2023-04-28T03:08:54.002Z,17.63
2023-04-28T03:11:22.074Z,21.42
2023-04-28T03:13:49.960Z,20.13
2023-04-28T03:16:17.931Z,19.70
2023-04-28T03:18:45.960Z,19.27
2023-04-28T03:21:13.933Z,20.60
2023-04-28T03:23:41.813Z,19.20
2023-04-28T03:26:11.116Z,20.48
2023-04-28T03:28:39.058Z,23.02
2023-04-28T03:31:06.897Z,19.27
2023-04-28T03:33:35.049Z,23.30
2023-04-28T03:36:03.154Z,19.60
2023-04-28T03:38:31.160Z,22.05
2023-04-28T03:41:00.236Z,16.58
2023-04-28T03:43:47.888Z,20.98
2023-04-28T03:46:34.693Z,18.40
2023-04-28T03:49:03.388Z,28.30
2023-04-28T03:51:33.205Z,15.60
2023-04-28T03:54:01.530Z,19.83
2023-04-28T03:56:29.757Z,26.48
2023-04-28T03:58:59.073Z,20.92
2023-04-28T04:01:27.995Z,22.38
2023-04-28T04:03:56.820Z,14.90
2023-04-28T04:06:25.232Z,18.95
2023-04-28T04:08:54.451Z,20.45
2023-04-28T04:11:22.475Z,22.50
2023-04-28T04:13:50.707Z,24.33
2023-04-28T04:16:22.793Z,24.77
2023-04-28T04:18:50.907Z,19.92
2023-04-28T04:21:21.109Z,16.92
2023-04-28T04:23:51.371Z,21.70
2023-04-28T04:26:19.336Z,22.25
2023-04-28T04:28:49.161Z,20.08
2023-04-28T04:31:18.282Z,20.60
2023-04-28T04:33:49.220Z,36.53
2023-04-28T04:36:19.511Z,36.10
2023-04-28T04:38:47.448Z,21.65
2023-04-28T04:41:20.804Z,21.60
2023-04-28T04:43:49.994Z,17.92
2023-04-28T04:46:18.599Z,20.40
2023-04-28T04:48:48.261Z,21.15
2023-04-28T04:51:16.686Z,16.60
2023-04-28T04:53:44.659Z,15.20
2023-04-28T04:56:12.745Z,16.00
2023-04-28T04:58:40.834Z,16.75
2023-04-28T05:01:28.797Z,21.42
2023-04-28T05:03:58.667Z,18.75
2023-04-28T05:06:27.349Z,18.35
2023-04-28T05:08:56.597Z,16.38
2023-04-28T05:11:24.779Z,23.63
2023-04-28T05:13:53.528Z,25.08
2023-04-28T05:16:21.621Z,15.98
2023-04-28T05:19:03.520Z,19.40
2023-04-28T05:21:32.717Z,18.65
2023-04-28T05:24:00.970Z,15.07
2023-04-28T05:26:29.395Z,24.00
2023-04-28T05:29:01.435Z,22.20
2023-04-28T05:31:29.845Z,24.48
2023-04-28T05:33:58.979Z,33.90
2023-04-28T05:36:28.540Z,34.65
2023-04-28T05:38:56.608Z,18.45
2023-04-28T05:41:24.773Z,16.83
2023-04-28T05:43:52.737Z,22.63
2023-04-28T05:46:30.167Z,18.52
2023-04-28T05:49:01.319Z,27.85
2023-04-28T05:51:35.892Z,25.08
2023-04-28T05:54:04.084Z,18.15
2023-04-28T05:56:37.700Z,23.33
2023-04-28T05:59:05.723Z,23.13
2023-04-28T06:01:33.710Z,22.38
2023-04-28T06:04:01.868Z,16.15
2023-04-28T06:06:30.171Z,17.75
2023-04-28T06:08:59.554Z,19.27
2023-04-28T06:11:27.615Z,21.05
2023-04-28T06:13:55.525Z,27.27
2023-04-28T06:16:23.714Z,19.33
2023-04-28T06:18:52.150Z,21.95
2023-04-28T06:21:21.614Z,18.58
2023-04-28T06:23:49.622Z,19.45
2023-04-28T06:26:19.316Z,21.60
2023-04-28T06:28:47.220Z,17.55
2023-04-28T06:31:15.594Z,16.35
2023-04-28T06:33:43.567Z,23.90
2023-04-28T06:36:14.057Z,19.05
2023-04-28T06:38:43.140Z,16.52
2023-04-28T06:41:11.401Z,18.38
2023-04-28T06:43:41.781Z,22.45
2023-04-28T06:46:14.290Z,17.40
2023-04-28T06:48:43.802Z,21.00
2023-04-28T06:51:11.673Z,22.80
2023-04-28T06:53:39.855Z,22.20
2023-04-28T06:56:11.663Z,26.33
2023-04-28T06:58:41.309Z,19.42
2023-04-28T07:01:09.719Z,18.08
2023-04-28T07:03:37.977Z,17.33
2023-04-28T07:06:06.646Z,12.05
2023-04-28T07:08:34.536Z,25.70
2023-04-28T07:11:04.735Z,19.92
2023-04-28T07:13:32.944Z,18.48
2023-04-28T07:16:02.604Z,17.23
2023-04-28T07:18:30.630Z,15.27
2023-04-28T07:20:58.488Z,15.25
2023-04-28T07:23:26.361Z,12.40
2023-04-28T07:25:54.315Z,16.58
2023-04-28T07:28:22.190Z,22.27
2023-04-28T07:30:50.064Z,16.55
2023-04-28T07:33:19.476Z,12.43
2023-04-28T07:35:48.032Z,17.33
2023-04-28T07:38:16.093Z,14.60
2023-04-28T07:40:44.537Z,21.40
2023-04-28T07:43:12.417Z,15.98
2023-04-28T07:45:40.701Z,17.55
2023-04-28T07:48:08.907Z,13.75
2023-04-28T07:50:38.472Z,12.35
2023-04-28T07:53:06.370Z,16.45
2023-04-28T07:55:34.580Z,19.55
2023-04-28T07:58:02.757Z,15.45
2023-04-28T08:00:30.613Z,13.70
2023-04-28T08:02:58.898Z,16.15
2023-04-28T08:05:27.252Z,16.20
2023-04-28T08:07:56.712Z,16.00
2023-04-28T08:10:26.634Z,15.02
2023-04-28T08:12:54.844Z,16.77
2023-04-28T08:15:22.867Z,13.30
2023-04-28T08:17:50.854Z,12.00
2023-04-28T08:20:21.120Z,27.30
2023-04-28T08:22:51.163Z,21.08
2023-04-28T08:25:20.767Z,17.00
2023-04-28T08:27:48.659Z,10.07
2023-04-28T08:30:16.625Z,20.38
2023-04-28T08:32:45.013Z,9.45
2023-04-28T08:35:12.869Z,13.55
2023-04-28T08:37:40.770Z,12.70
2023-04-28T08:40:10.757Z,14.80
2023-04-28T08:42:40.546Z,10.65
2023-04-28T08:45:09.284Z,8.55
2023-04-28T08:47:38.484Z,12.65
2023-04-28T08:50:07.442Z,14.93
2023-04-28T08:52:36.283Z,11.52
2023-04-28T08:55:07.429Z,8.50
2023-04-28T08:57:41.211Z,10.93
2023-04-28T09:00:11.727Z,13.02
2023-04-28T09:02:42.479Z,14.85
2023-04-28T09:05:11.260Z,16.75
2023-04-28T09:07:39.745Z,20.92
2023-04-28T09:10:17.207Z,11.80
2023-04-28T09:12:45.180Z,9.23
2023-04-28T09:15:26.402Z,7.95
2023-04-28T09:17:54.629Z,11.55
2023-04-28T09:20:23.372Z,12.85
2023-04-28T09:22:51.722Z,7.18
2023-04-28T09:25:21.422Z,10.07
2023-04-28T09:27:49.589Z,8.68
2023-04-28T09:30:18.916Z,10.55
2023-04-28T09:32:47.620Z,17.17
2023-04-28T09:35:15.556Z,13.05
2023-04-28T09:37:43.670Z,12.40
2023-04-28T09:40:12.573Z,11.75
2023-04-28T09:42:41.665Z,7.63
2023-04-28T09:45:10.306Z,10.85
2023-04-28T09:47:41.029Z,8.88
2023-04-28T09:50:11.833Z,10.30
2023-04-28T09:52:40.637Z,9.48
2023-04-28T09:55:09.788Z,10.38
2023-04-28T09:57:38.167Z,11.57
2023-04-28T10:00:09.133Z,12.63
2023-04-28T10:05:11.371Z,14.73
2023-04-28T10:07:40.531Z,10.75
2023-04-28T10:10:08.767Z,13.23
2023-04-28T10:12:38.708Z,10.07
2023-04-28T10:15:08.490Z,13.13
2023-04-28T10:17:37.197Z,14.50
2023-04-28T10:20:06.517Z,13.38
2023-04-28T10:22:43.473Z,11.13
2023-04-28T10:25:22.248Z,13.65
2023-04-28T10:27:51.160Z,11.38
2023-04-28T10:30:27.630Z,15.75
2023-04-28T10:33:16.194Z,12.13
2023-04-28T10:35:45.285Z,9.63
2023-04-28T10:38:15.113Z,7.18
2023-04-28T10:40:44.833Z,8.82
2023-04-28T10:43:13.553Z,7.05
2023-04-28T10:46:01.414Z,12.50
2023-04-28T10:48:48.260Z,8.23
2023-04-28T10:51:24.477Z,6.60
2023-04-28T10:54:15.693Z,9.48
2023-04-28T10:57:04.126Z,6.55
2023-04-28T10:59:32.110Z,7.95
2023-04-28T11:02:14.836Z,10.70
2023-04-28T11:04:58.129Z,17.05
2023-04-28T11:07:26.118Z,8.63
2023-04-28T11:09:55.470Z,11.73
2023-04-28T11:12:23.325Z,10.25
2023-04-28T11:14:51.344Z,13.88
2023-04-28T11:17:22.112Z,10.65
2023-04-28T11:19:51.394Z,14.05
2023-04-28T11:22:20.543Z,7.25
2023-04-28T11:24:59.660Z,12.35
2023-04-28T11:27:27.803Z,10.05
2023-04-28T11:29:55.856Z,16.15
2023-04-28T11:32:28.168Z,14.98
2023-04-28T11:34:56.281Z,8.85
2023-04-28T11:37:24.337Z,9.25
2023-04-28T11:39:52.301Z,8.85
2023-04-28T11:42:21.578Z,9.18
2023-04-28T11:44:53.812Z,15.85
2023-04-28T11:47:32.989Z,9.48
2023-04-28T11:50:01.452Z,13.25
2023-04-28T11:52:29.469Z,11.82
2023-04-28T11:54:57.773Z,12.70
2023-04-28T11:57:27.782Z,10.85
2023-04-28T11:59:55.839Z,16.00
2023-04-28T12:02:28.581Z,10.65
2023-04-28T12:04:56.844Z,12.73
2023-04-28T12:07:25.116Z,9.98
2023-04-28T12:10:07.931Z,12.15
2023-04-28T12:15:25.535Z,13.60
2023-04-28T12:17:53.510Z,17.58
2023-04-28T12:20:38.012Z,19.30
2023-04-28T12:23:06.150Z,12.30
2023-04-28T12:25:36.040Z,11.48
2023-04-28T12:28:06.185Z,11.65
2023-04-28T12:30:34.625Z,11.63
2023-04-28T12:33:02.838Z,8.35
2023-04-28T12:35:30.924Z,10.85
2023-04-28T12:37:59.206Z,11.48
2023-04-28T12:40:27.501Z,15.32
2023-04-28T12:42:55.371Z,16.52
2023-04-28T12:45:24.683Z,10.15
2023-04-28T12:47:52.762Z,9.23
2023-04-28T12:50:20.757Z,8.70
2023-04-28T12:52:48.641Z,12.25
2023-04-28T12:55:16.656Z,12.23
2023-04-28T12:57:44.613Z,13.45
2023-04-28T13:00:16.367Z,8.75
2023-04-28T13:02:46.683Z,10.77
2023-04-28T13:05:15.561Z,10.48
2023-04-28T13:07:43.687Z,13.07
2023-04-28T13:10:12.960Z,13.15
2023-04-28T13:12:41.328Z,10.70
2023-04-28T13:15:09.879Z,10.23
2023-04-28T13:17:37.757Z,13.48
2023-04-28T13:20:07.992Z,13.02
2023-04-28T13:22:35.989Z,12.20
2023-04-28T13:25:04.033Z,14.07
2023-04-28T13:27:34.327Z,11.95
2023-04-28T13:30:04.054Z,12.85
2023-04-28T13:32:32.142Z,11.43
2023-04-28T13:35:00.049Z,8.40
2023-04-28T13:37:29.433Z,8.23
2023-04-28T13:39:58.231Z,13.50
2023-04-28T13:42:26.306Z,9.18
2023-04-28T13:44:54.275Z,11.25
2023-04-28T13:47:22.189Z,6.55
2023-04-28T13:49:50.489Z,7.97
2023-04-28T13:52:18.944Z,8.88
2023-04-28T13:54:49.184Z,11.55
2023-04-28T13:57:17.316Z,5.45
2023-04-28T13:59:45.564Z,12.10
2023-04-28T14:02:13.481Z,9.25
2023-04-28T14:04:48.418Z,14.50
2023-04-28T14:07:17.314Z,15.35
2023-04-28T14:09:45.562Z,6.78
2023-04-28T14:12:15.596Z,12.90
2023-04-28T14:14:43.932Z,13.07
2023-04-28T14:17:12.585Z,13.18
2023-04-28T14:19:40.701Z,12.07
2023-04-28T14:22:08.691Z,8.02
2023-04-28T14:24:36.890Z,9.20
2023-04-28T14:27:05.231Z,8.27
2023-04-28T14:29:34.539Z,9.38
2023-04-28T14:32:02.450Z,7.57
2023-04-28T14:34:30.521Z,8.07
2023-04-28T14:36:58.580Z,10.77
2023-04-28T14:39:26.626Z,7.25
2023-04-28T14:41:54.526Z,9.68
2023-04-28T14:44:22.500Z,8.60
2023-04-28T14:46:51.903Z,10.63
2023-04-28T14:49:19.844Z,7.32
2023-04-28T14:51:47.898Z,10.13
2023-04-28T14:54:17.374Z,8.25
2023-04-28T14:56:45.269Z,8.73
2023-04-28T14:59:13.187Z,9.05
2023-04-28T15:01:42.684Z,11.90
2023-04-28T15:04:12.530Z,16.83
2023-04-28T15:06:40.644Z,10.13
2023-04-28T15:09:08.648Z,11.65
2023-04-28T15:11:36.562Z,14.60
2023-04-28T15:14:04.534Z,8.38
2023-04-28T15:16:33.112Z,11.40
2023-04-28T15:19:01.082Z,9.98
2023-04-28T15:21:31.117Z,25.73
2023-04-28T15:23:59.799Z,17.73
2023-04-28T15:26:29.961Z,25.65
2023-04-28T15:28:58.853Z,23.38
2023-04-28T15:31:28.323Z,18.67
2023-04-28T15:33:56.739Z,16.50
2023-04-28T15:36:24.621Z,16.48
2023-04-28T15:38:54.676Z,22.35
2023-04-28T15:41:22.850Z,44.90
2023-04-28T15:43:50.816Z,47.22
2023-04-28T15:46:18.808Z,36.85
2023-04-28T15:48:46.743Z,18.58
2023-04-28T15:51:14.739Z,33.55
2023-04-28T15:53:42.842Z,12.48
2023-04-28T15:56:12.448Z,16.05
2023-04-28T15:58:40.511Z,10.95
2023-04-28T16:01:08.741Z,10.75
2023-04-28T16:03:36.704Z,11.25
2023-04-28T16:06:04.838Z,16.75
2023-04-28T16:08:32.850Z,9.05
2023-04-28T16:11:00.852Z,7.72
2023-04-28T16:13:32.787Z,13.73
2023-04-28T16:16:01.236Z,10.32
2023-04-28T16:18:29.295Z,12.50
2023-04-28T16:20:58.594Z,13.52
2023-04-28T16:23:26.913Z,10.65
2023-04-28T16:25:55.118Z,14.00
2023-04-28T16:28:23.256Z,8.50
2023-04-28T16:30:52.655Z,8.35
2023-04-28T16:33:20.703Z,9.85
2023-04-28T16:35:55.411Z,6.45
2023-04-28T16:38:23.742Z,8.63
2023-04-28T16:40:52.326Z,9.55
2023-04-28T16:43:20.231Z,8.95
2023-04-28T16:45:49.031Z,8.20
2023-04-28T16:48:20.196Z,12.25
2023-04-28T16:50:48.142Z,11.48
2023-04-28T16:53:16.175Z,16.05
2023-04-28T16:55:45.090Z,7.80
2023-04-28T16:58:12.960Z,14.43
2023-04-28T17:00:43.942Z,8.32
2023-04-28T17:03:12.100Z,11.00
2023-04-28T17:05:41.827Z,8.27
2023-04-28T17:08:09.825Z,7.50
2023-04-28T17:10:38.212Z,12.65
2023-04-28T17:13:06.871Z,11.88
2023-04-28T17:15:35.710Z,10.45
2023-04-28T17:18:03.827Z,14.65
2023-04-28T17:20:31.813Z,9.35
2023-04-28T17:23:01.290Z,8.45
2023-04-28T17:25:29.523Z,12.57
2023-04-28T17:27:59.805Z,12.38
2023-04-28T17:30:27.775Z,9.38
2023-04-28T17:32:55.873Z,13.95
2023-04-28T17:35:23.930Z,12.05
2023-04-28T17:37:51.825Z,12.55
2023-04-28T17:40:24.156Z,20.65
2023-04-28T17:42:52.312Z,26.48
2023-04-28T17:45:20.204Z,30.90
2023-04-28T17:47:48.207Z,25.75
2023-04-28T17:50:16.647Z,33.88
2023-04-28T17:52:44.648Z,69.18
2023-04-28T17:55:13.220Z,67.63
2023-04-28T17:57:42.933Z,78.72
2023-04-28T18:00:12.126Z,100.22
2023-04-28T18:02:42.114Z,126.78
2023-04-28T18:05:13.136Z,137.00
2023-04-28T18:07:42.182Z,163.88
2023-04-28T18:10:10.278Z,166.70
2023-04-28T18:12:38.192Z,223.15
2023-04-28T18:15:08.105Z,248.60
2023-04-28T18:17:36.143Z,234.82
2023-04-28T18:20:06.333Z,212.43
2023-04-28T18:22:34.352Z,228.50
2023-04-28T18:25:03.202Z,234.13
2023-04-28T18:27:31.100Z,210.55
2023-04-28T18:29:58.981Z,226.07
2023-04-28T18:32:29.240Z,228.52
2023-04-28T18:34:57.404Z,259.20
2023-04-28T18:37:25.711Z,248.38
2023-04-28T18:39:56.199Z,236.60
2023-04-28T18:42:24.373Z,204.80
2023-04-28T18:44:53.908Z,177.98
2023-04-28T18:47:23.930Z,185.05
2023-04-28T18:50:02.915Z,169.57
2023-04-28T18:52:31.111Z,170.57
2023-04-28T18:54:59.117Z,172.65
2023-04-28T18:57:27.137Z,174.10
2023-04-28T18:59:55.069Z,197.20
2023-04-28T19:02:23.120Z,167.60
2023-04-28T19:04:51.485Z,144.48
2023-04-28T19:07:20.787Z,146.93
2023-04-28T19:09:48.913Z,147.68
2023-04-28T19:12:17.749Z,135.57
2023-04-28T19:14:45.693Z,124.28
2023-04-28T19:17:13.754Z,127.63
2023-04-28T19:19:41.797Z,116.70
2023-04-28T19:22:24.535Z,120.85
2023-04-28T19:24:54.223Z,121.68
2023-04-28T19:27:22.100Z,126.13
2023-04-28T19:29:50.257Z,143.68
2023-04-28T19:32:18.447Z,151.90
2023-04-28T19:34:46.254Z,148.80
2023-04-28T19:37:14.182Z,134.38
2023-04-28T19:39:42.250Z,143.75
2023-04-28T19:42:11.653Z,156.00
2023-04-28T19:44:39.532Z,158.25
2023-04-28T19:47:07.970Z,160.13
2023-04-28T19:49:36.065Z,106.10
2023-04-28T19:52:05.553Z,124.88
2023-04-28T19:54:33.559Z,76.22
2023-04-28T19:57:01.855Z,90.07
2023-04-28T19:59:31.192Z,96.07
2023-04-28T20:01:59.101Z,101.03
2023-04-28T20:04:29.087Z,109.43
2023-04-28T20:06:57.301Z,97.53
2023-04-28T20:09:25.294Z,110.25
2023-04-28T20:11:53.241Z,78.75
2023-04-28T20:14:21.714Z,74.07
2023-04-28T20:16:51.560Z,50.28
2023-04-28T20:19:19.979Z,38.55
2023-04-28T20:21:48.188Z,39.22
2023-04-28T20:24:16.504Z,45.65
2023-04-28T20:26:44.712Z,41.35
2023-04-28T20:29:13.022Z,35.95
2023-04-28T20:31:40.939Z,29.40
2023-04-28T20:34:10.810Z,25.05
2023-04-28T20:36:41.143Z,28.20
2023-04-28T20:39:11.850Z,29.10
2023-04-28T20:41:41.040Z,28.33
2023-04-28T20:44:12.777Z,33.38
2023-04-28T20:46:42.285Z,37.97
2023-04-28T20:49:12.437Z,29.88
2023-04-28T20:51:41.137Z,36.30
2023-04-28T20:54:09.406Z,32.17
2023-04-28T20:56:37.558Z,29.13
2023-04-28T20:59:05.470Z,25.33
2023-04-28T21:01:33.324Z,22.90
2023-04-28T21:04:01.296Z,20.95
2023-04-28T21:06:31.717Z,23.98
2023-04-28T21:09:09.160Z,28.83
2023-04-28T21:11:37.357Z,19.27
2023-04-28T21:14:05.264Z,17.45
2023-04-28T21:16:33.453Z,18.63
2023-04-28T21:19:01.779Z,18.67
2023-04-28T21:21:31.103Z,21.08
2023-04-28T21:24:00.699Z,26.67
2023-04-28T21:26:28.624Z,18.52
2023-04-28T21:28:56.951Z,24.52
2023-04-28T21:31:25.442Z,18.42
2023-04-28T21:33:53.339Z,17.38
2023-04-28T21:36:21.361Z,19.90
2023-04-28T21:38:50.618Z,18.23
2023-04-28T21:41:18.546Z,15.52
2023-04-28T21:43:46.547Z,16.05
2023-04-28T21:46:15.210Z,13.10
2023-04-28T21:48:43.722Z,12.45
2023-04-28T21:51:19.046Z,14.75
2023-04-28T21:53:46.907Z,10.98
2023-04-28T21:56:17.379Z,15.07
2023-04-28T21:58:46.251Z,12.05
2023-04-28T22:01:17.127Z,14.27
2023-04-28T22:03:45.578Z,9.07
2023-04-28T22:06:14.436Z,11.80
2023-04-28T22:08:42.290Z,12.18
2023-04-28T22:11:10.155Z,10.18
2023-04-28T22:13:39.630Z,13.27
2023-04-28T22:16:07.773Z,11.35
2023-04-28T22:18:38.600Z,9.27
2023-04-28T22:21:08.002Z,15.85
2023-04-28T22:23:35.906Z,15.63
2023-04-28T22:26:04.714Z,62.00
2023-04-28T22:28:32.716Z,56.80
2023-04-28T22:31:02.134Z,40.90
2023-04-28T22:33:30.148Z,26.92
2023-04-28T22:35:58.028Z,20.88
2023-04-28T22:38:26.113Z,71.82
2023-04-28T22:40:53.987Z,53.33
2023-04-28T22:43:21.863Z,31.13
2023-04-28T22:45:49.997Z,23.10
2023-04-28T22:48:19.655Z,15.52
2023-04-28T22:50:47.578Z,19.38
2023-04-28T22:53:15.505Z,17.00
2023-04-28T22:55:45.441Z,17.80
2023-04-28T22:58:13.337Z,17.30
2023-04-28T23:00:41.657Z,14.32
2023-04-28T23:03:09.854Z,13.35
2023-04-28T23:05:39.705Z,15.30
2023-04-28T23:08:07.730Z,13.27
2023-04-28T23:10:35.633Z,16.83
2023-04-28T23:13:03.541Z,37.83
2023-04-28T23:15:31.742Z,61.60
2023-04-28T23:17:59.592Z,25.30
2023-04-28T23:20:27.777Z,21.75
2023-04-28T23:22:59.593Z,19.73
2023-04-28T23:25:27.542Z,14.15
2023-04-28T23:27:55.572Z,18.38
2023-04-28T23:30:23.613Z,23.33
2023-04-28T23:32:51.599Z,13.65
2023-04-28T23:35:19.834Z,14.70
2023-04-28T23:37:47.765Z,13.25
2023-04-28T23:40:18.274Z,11.90
2023-04-28T23:42:46.838Z,10.48
2023-04-28T23:45:14.977Z,15.00
2023-04-28T23:47:43.015Z,10.63
2023-04-28T23:50:11.732Z,19.00
2023-04-28T23:52:40.532Z,17.45
2023-04-28T23:55:10.503Z,16.80
2023-04-28T23:57:39.959Z,14.32
